createdAt,value
2018-07-12T00:12:01.500Z,94589.16
2018-07-12T00:27:04.032Z,94590.09
2018-07-12T00:42:06.403Z,94592.77
2018-07-12T00:57:08.870Z,94593.47
2018-07-12T01:12:11.190Z,94597.66
2018-07-12T01:27:13.549Z,94591.59
2018-07-12T01:42:15.941Z,94591.70
2018-07-12T01:57:18.332Z,94589.83
2018-07-12T02:12:20.704Z,94590.44
2018-07-12T02:27:23.062Z,94595.52
2018-07-12T02:42:26.405Z,94595.75
2018-07-12T02:57:28.784Z,94598.66
2018-07-12T03:12:31.142Z,94600.12
2018-07-12T03:27:33.511Z,94599.63
2018-07-12T03:42:35.891Z,94589.72
2018-07-12T03:57:39.217Z,94605.59
2018-07-12T04:12:41.594Z,94613.11
2018-07-12T04:27:43.961Z,94611.50
2018-07-12T04:42:46.329Z,94622.27
2018-07-12T04:57:49.222Z,94620.02
2018-07-12T05:12:51.607Z,94617.63
2018-07-12T05:27:53.994Z,94632.52
2018-07-12T05:42:57.808Z,94639.52
2018-07-12T05:58:01.640Z,94641.67
2018-07-12T06:13:05.435Z,94638.69
2018-07-12T06:28:09.211Z,94638.78
2018-07-12T06:43:13.765Z,94637.97
2018-07-12T06:58:17.487Z,94633.21
2018-07-12T07:13:21.334Z,94630.27
2018-07-12T07:28:25.197Z,94617.48
2018-07-12T07:43:28.941Z,94615.98
2018-07-12T07:58:32.753Z,94620.40
2018-07-12T08:13:36.581Z,94619.15
2018-07-12T08:28:40.347Z,94613.14
2018-07-12T08:43:44.029Z,94608.81
2018-07-12T08:58:47.912Z,94604.37
2018-07-12T09:13:51.651Z,94594.80
2018-07-12T09:28:55.496Z,94599.14
2018-07-12T09:43:59.265Z,94600.17
2018-07-12T09:59:03.094Z,94588.64
2018-07-12T10:14:12.051Z,94581.03
2018-07-12T10:29:15.821Z,94584.88
2018-07-12T10:44:19.595Z,94568.94
2018-07-12T10:59:23.361Z,94570.05
2018-07-12T11:14:27.157Z,94552.97
2018-07-12T11:29:43.033Z,94543.19
2018-07-12T11:44:47.110Z,94533.16
2018-07-12T11:59:50.852Z,94532.67
2018-07-12T12:14:54.643Z,94523.84
2018-07-12T12:29:58.401Z,94527.19
2018-07-12T12:45:03.077Z,94521.55
2018-07-12T13:00:07.366Z,94502.25
2018-07-12T13:15:11.220Z,94508.63
2018-07-12T13:30:14.998Z,94522.66
2018-07-12T13:45:18.922Z,94546.73
2018-07-12T14:00:22.617Z,94540.55
2018-07-12T14:15:26.440Z,94545.85
2018-07-12T14:30:30.218Z,94554.41
2018-07-12T14:45:34.000Z,94539.18
2018-07-12T15:00:37.977Z,94532.02
2018-07-12T15:15:41.833Z,94519.42
2018-07-12T15:30:45.565Z,94517.06
2018-07-12T15:45:49.285Z,94519.59
2018-07-12T16:00:53.060Z,94506.73
2018-07-12T16:15:56.802Z,94508.59
2018-07-12T16:31:00.594Z,94520.97
2018-07-12T16:46:04.426Z,94519.91
2018-07-12T17:01:08.188Z,94526.30
2018-07-12T17:16:12.016Z,94537.06
2018-07-12T17:31:15.681Z,94548.09
2018-07-12T17:46:19.382Z,94553.00
2018-07-12T18:01:23.009Z,94560.83
2018-07-12T18:16:26.709Z,94570.80
2018-07-12T18:31:30.410Z,94579.27
2018-07-12T18:46:35.171Z,94595.40
2018-07-12T19:01:40.197Z,94616.77
2018-07-12T19:16:43.939Z,94623.89
2018-07-12T19:31:47.681Z,94617.53
2018-07-12T19:46:51.461Z,94624.19
2018-07-12T20:01:55.175Z,94639.97
2018-07-12T20:16:58.872Z,94646.05
2018-07-12T20:32:02.545Z,94642.16
2018-07-12T20:47:06.270Z,94650.62
2018-07-12T21:02:10.138Z,94637.41
2018-07-12T21:17:13.963Z,94667.16
2018-07-12T21:32:17.765Z,94671.02
2018-07-12T21:47:22.581Z,94668.41
2018-07-12T22:02:26.314Z,94668.27
2018-07-12T22:17:30.126Z,94668.64
2018-07-12T22:32:35.755Z,94665.16
2018-07-12T22:47:39.481Z,94661.19
2018-07-12T23:02:43.226Z,94665.87
2018-07-12T23:17:46.953Z,94661.53
2018-07-12T23:32:50.677Z,94654.68
2018-07-12T23:47:55.446Z,94650.13
